Main page
METAR-TAF:

METAR-TAF

Airports :

Hrodna Airport

Grodno, Belarus

latitude: 53-36-06N, longitude: 024-03-18E, elevation: 135 m

Current weather observation

The report was made 6 hours and 20 minutes ago, at 14:00 UTC
Wind 6 kt from the West/Northwest
Temperature 11°C
Humidity 62%
Pressure 1023 hPa
Visibility 10 km or more
Broken clouds at a height of 4300 ft
Broken clouds at a height of 20000 ft

METAR: UMMG 201400Z 30003MPS 9999 BKN043 BKN200 11/04 Q1023 NOSIG

Time: 23:20 (20:20 UTC)

Forecast

The report was made 6 hours and 20 minutes ago, at 14:00 UTC
Forecast valid from 20 at 15 UTC to 20 at 24 UTC
Wind 10 kt from the West/Northwest
Visibility 10 km or more
Broken clouds at a height of 2000 ft
Temporary
from 20 at 17 UTC to 20 at 24 UTC
Visibility: 3000 m
Broken clouds at a height of 700 ft, Cumulonimbus.
light rain showers, mist

TAF: UMMG 201400Z 2015/2024 29005MPS 9999 BKN020 TEMPO 2017/2024 3000 -SHRA BR BKN007CB

Weather observations and forecasts of more than 4000 airports (METAR and TAF reports).

The available stations are represented by yellow and red dots on the map.

Hover mouse over dot to see the name of the station.

Then click to see weather observations and forecasts.

To change the map : click on the green buttons with a black cross to zoom in, on the green button with a dash to zoom out, or on the green arrows for adjacent maps.


METAR-TAF: